Time;durP1;ratioP1;P1;durP2;ratioP2;P2;SDS_P1;SDS_P2;PMS_P1;PMS_P2;Temp;Humidity;BMP_temperature;BMP_pressure;BME280_temperature;BME280_humidity;BME280_pressure;Samples;Min_cycle;Max_cycle;Signal;HPM_P1;HPM_P2
2022/06/20 00:01:10;;;;;;;3.42;1.20;;;13.70;99.90;;;;;;5042097;28;20461;-75
2022/06/20 00:03:41;;;;;;;3.10;1.30;;;13.60;99.90;;;;;;5060813;28;20056;-75
2022/06/20 00:06:13;;;;;;;3.72;1.42;;;13.60;99.90;;;;;;5061984;28;20087;-75
2022/06/20 00:08:40;;;;;;;4.40;1.20;;;13.60;99.90;;;;;;5063583;28;20051;-75
2022/06/20 00:11:44;;;;;;;3.55;1.10;;;13.60;99.90;;;;;;5042560;28;20056;-75
2022/06/20 00:14:15;;;;;;;3.80;1.40;;;13.60;99.90;;;;;;5044219;28;20044;-75
2022/06/20 00:16:42;;;;;;;3.45;1.40;;;13.60;99.90;;;;;;5060146;28;20045;-75
2022/06/20 00:19:12;;;;;;;2.80;1.50;;;13.50;99.90;;;;;;5040177;28;20057;-75
2022/06/20 00:21:39;;;;;;;3.45;1.35;;;14.00;99.90;;;;;;5063261;28;20091;-75
2022/06/20 00:24:05;;;;;;;4.32;1.30;;;13.50;99.90;;;;;;5060332;28;20044;-76
2022/06/20 00:26:30;;;;;;;4.70;1.20;;;13.40;99.90;;;;;;5044424;28;20045;-75
2022/06/20 00:28:57;;;;;;;3.60;1.30;;;13.40;99.90;;;;;;5062428;28;20036;-75
2022/06/20 00:31:23;;;;;;;2.88;1.20;;;13.50;99.90;;;;;;5058910;28;20041;-74
2022/06/20 00:33:49;;;;;;;3.47;1.30;;;13.30;99.90;;;;;;5042731;28;20036;-75
2022/06/20 00:36:15;;;;;;;5.07;1.30;;;13.30;99.90;;;;;;5063167;28;20094;-75
2022/06/20 00:38:43;;;;;;;4.97;1.23;;;13.30;99.90;;;;;;5037477;28;20120;-75
2022/06/20 00:41:21;;;;;;;4.82;1.60;;;13.60;99.90;;;;;;5062891;28;20178;-75
2022/06/20 00:43:50;;;;;;;8.98;1.63;;;13.30;99.90;;;;;;5042900;28;20045;-75
2022/06/20 00:46:39;;;;;;;3.90;1.40;;;13.30;99.90;;;;;;5062356;28;20043;-75
2022/06/20 00:49:14;;;;;;;3.38;1.30;;;13.30;99.90;;;;;;5062639;28;20161;-75
2022/06/20 00:51:49;;;;;;;4.68;1.50;;;13.30;99.90;;;;;;5055192;28;20056;-75
2022/06/20 00:54:38;;;;;;;4.97;1.73;;;13.30;99.90;;;;;;5055221;28;20527;-75
2022/06/20 00:57:13;;;;;;;4.60;1.67;;;13.20;99.90;;;;;;5042308;28;20040;-75
2022/06/20 00:59:43;;;;;;;4.18;1.20;;;13.20;99.90;;;;;;5055188;28;20056;-75
2022/06/20 01:02:11;;;;;;;6.47;1.60;;;13.30;99.90;;;;;;5055842;28;20136;-76
2022/06/20 01:04:45;;;;;;;3.70;1.38;;;13.20;99.90;;;;;;5037836;28;20044;-75
2022/06/20 01:07:19;;;;;;;5.30;1.60;;;13.30;99.90;;;;;;5036301;28;20128;-75
2022/06/20 01:09:48;;;;;;;5.55;1.88;;;13.10;99.90;;;;;;5044532;28;20040;-75
2022/06/20 01:12:18;;;;;;;5.93;1.85;;;13.20;99.90;;;;;;5041271;28;20049;-76
2022/06/20 01:14:43;;;;;;;3.83;1.80;;;13.00;99.90;;;;;;5062367;28;20043;-75
2022/06/20 01:17:15;;;;;;;;;;;13.00;99.90;;;;;;5034267;28;20136;-76
2022/06/20 01:20:17;;;;;;;5.90;1.65;;;12.90;99.90;;;;;;5030860;28;19921;-76
2022/06/20 01:22:54;;;;;;;3.90;1.60;;;12.90;99.90;;;;;;5026073;28;20065;-76
2022/06/20 01:25:43;;;;;;;5.70;1.75;;;12.80;99.90;;;;;;5030573;28;20045;-76
2022/06/20 01:28:12;;;;;;;4.80;1.77;;;12.80;99.90;;;;;;5030550;28;20490;-76
2022/06/20 01:30:42;;;;;;;4.63;1.83;;;12.70;99.90;;;;;;5031579;28;20045;-76
2022/06/20 01:33:07;;;;;;;3.88;1.50;;;12.70;99.90;;;;;;5030878;28;20041;-76
2022/06/20 01:38:20;;;;;;;4.60;1.65;;;12.60;99.90;;;;;;5030616;28;19964;-76
2022/06/20 01:43:33;;;;;;;4.90;2.28;;;12.70;99.90;;;;;;5023371;28;19921;-76
2022/06/20 01:46:00;;;;;;;6.15;1.73;;;12.50;99.90;;;;;;5031348;28;20435;-76
2022/06/20 01:48:31;;;;;;;6.20;2.20;;;12.90;99.90;;;;;;5030190;28;20041;-76
2022/06/20 01:50:58;;;;;;;4.75;1.80;;;12.50;99.90;;;;;;5031513;28;20095;-76
2022/06/20 01:53:29;;;;;;;4.90;1.88;;;12.40;99.90;;;;;;5029724;28;20046;-76
2022/06/20 01:55:57;;;;;;;5.22;1.90;;;12.30;99.90;;;;;;5028986;28;20090;-76
2022/06/20 01:58:30;;;;;;;5.28;2.00;;;12.30;99.90;;;;;;5026411;28;20477;-76
2022/06/20 02:00:57;;;;;;;6.65;2.10;;;12.70;99.90;;;;;;5030996;28;20034;-76
2022/06/20 02:03:23;;;;;;;6.07;2.35;;;12.10;99.90;;;;;;5030026;28;20065;-76
2022/06/20 02:05:53;;;;;;;;;;;12.30;99.90;;;;;;5030315;28;20092;-76
2022/06/20 02:08:20;;;;;;;5.95;1.85;;;12.80;99.90;;;;;;5030664;28;20051;-76
2022/06/20 02:11:05;;;;;;;4.28;1.80;;;12.80;99.90;;;;;;5028745;28;20048;-75
2022/06/20 02:13:38;;;;;;;5.45;2.40;;;12.40;99.90;;;;;;5033378;28;20538;-76
2022/06/20 02:16:07;;;;;;;7.00;2.30;;;12.40;99.90;;;;;;5034713;28;20405;-76
2022/06/20 02:18:38;;;;;;;3.75;1.63;;;12.80;99.90;;;;;;5063239;28;20055;-76
2022/06/20 02:21:09;;;;;;;7.80;2.17;;;12.50;99.90;;;;;;5048164;28;20037;-75
2022/06/20 02:23:39;;;;;;;7.38;2.38;;;12.40;99.90;;;;;;5045364;28;20038;-76
2022/06/20 02:26:07;;;;;;;7.70;2.17;;;12.60;99.90;;;;;;5047632;28;20048;-76
2022/06/20 02:28:58;;;;;;;5.38;2.38;;;12.30;99.90;;;;;;5044983;28;20040;-76
2022/06/20 02:31:24;;;;;;;5.15;2.00;;;12.30;99.90;;;;;;5038847;28;20132;-76
2022/06/20 02:33:53;;;;;;;5.25;2.17;;;12.30;99.90;;;;;;5065918;28;20067;-76
2022/06/20 02:36:18;;;;;;;4.95;2.33;;;12.60;99.90;;;;;;5044757;28;20040;-76
2022/06/20 02:38:45;;;;;;;;;;;12.90;99.90;;;;;;5064620;28;20500;-76
2022/06/20 02:41:12;;;;;;;4.53;2.30;;;11.80;99.90;;;;;;5045669;28;19920;-76
2022/06/20 02:43:44;;;;;;;9.05;2.55;;;12.00;99.90;;;;;;5045456;28;20059;-76
2022/06/20 02:46:13;;;;;;;4.70;2.28;;;12.00;99.90;;;;;;5062459;28;20047;-76
2022/06/20 02:48:42;;;;;;;4.93;2.20;;;12.20;99.90;;;;;;5046313;28;20048;-76
2022/06/20 02:51:12;;;;;;;5.32;2.22;;;11.90;99.90;;;;;;5044940;28;20044;-76
2022/06/20 02:53:41;;;;;;;5.55;2.15;;;11.90;99.90;;;;;;5063896;28;20173;-76
2022/06/20 02:56:12;;;;;;;4.97;2.17;;;11.80;99.90;;;;;;5045542;28;20041;-75
2022/06/20 02:58:42;;;;;;;7.10;2.10;;;11.70;99.90;;;;;;5045235;28;20045;-75
2022/06/20 03:01:31;;;;;;;6.38;2.30;;;11.70;99.90;;;;;;5060104;28;20500;-75
2022/06/20 03:03:58;;;;;;;4.10;2.00;;;11.60;99.90;;;;;;5045465;28;20036;-75
2022/06/20 03:06:37;;;;;;;4.15;1.75;;;11.60;99.90;;;;;;5063800;28;20067;-75
2022/06/20 03:09:03;;;;;;;5.22;2.08;;;11.50;99.90;;;;;;5045454;28;20112;-75
2022/06/20 03:11:34;;;;;;;3.75;1.73;;;11.40;99.90;;;;;;5063730;28;20049;-75
2022/06/20 03:14:03;;;;;;;5.05;2.05;;;11.30;99.90;;;;;;5062294;28;20037;-76
2022/06/20 03:16:29;;;;;;;6.68;2.45;;;11.50;99.90;;;;;;5061247;28;20060;-76
2022/06/20 03:18:55;;;;;;;;;;;11.20;99.90;;;;;;5053269;28;20045;-76
2022/06/20 03:21:27;;;;;;;5.43;2.40;;;11.10;99.90;;;;;;5053098;28;19927;-76
2022/06/20 03:23:56;;;;;;;4.85;2.28;;;11.10;99.90;;;;;;5052628;28;20034;-76
2022/06/20 03:26:25;;;;;;;5.38;2.33;;;11.20;99.90;;;;;;5042429;28;20472;-76
2022/06/20 03:28:51;;;;;;;6.72;2.22;;;11.00;99.90;;;;;;5052989;28;20052;-75
2022/06/20 03:31:17;;;;;;;5.25;2.38;;;11.00;99.90;;;;;;5052407;28;20480;-75
2022/06/20 03:33:43;;;;;;;;;;;11.00;99.90;;;;;;5053191;28;20096;-75
2022/06/20 03:36:15;;;;;;;5.57;2.15;;;11.00;99.90;;;;;;5052909;28;19924;-75
2022/06/20 03:38:44;;;;;;;4.22;2.00;;;10.90;99.90;;;;;;5039449;28;20123;-75
2022/06/20 03:41:13;;;;;;;5.95;2.30;;;11.40;99.90;;;;;;5042401;28;20102;-75
2022/06/20 03:43:42;;;;;;;6.45;2.38;;;10.90;99.90;;;;;;5052653;28;20057;-75
2022/06/20 03:46:21;;;;;;;5.40;2.78;;;11.60;99.90;;;;;;5041537;28;20045;-75
2022/06/20 03:49:12;;;;;;;4.78;2.15;;;10.80;99.90;;;;;;5049072;28;20036;-79
2022/06/20 03:51:44;;;;;;;4.88;2.28;;;10.80;99.90;;;;;;5052700;28;20048;-77
2022/06/20 03:54:21;;;;;;;5.03;2.47;;;10.80;99.90;;;;;;5034758;28;20037;-75
2022/06/20 03:56:53;;;;;;;5.00;2.42;;;10.90;99.90;;;;;;5039559;28;20095;-76
2022/06/20 03:59:28;;;;;;;8.35;2.70;;;10.90;99.90;;;;;;5042072;28;20505;-76
2022/06/20 04:02:05;;;;;;;7.85;2.70;;;10.90;99.90;;;;;;5040573;28;20499;-75
2022/06/20 04:04:37;;;;;;;7.78;3.00;;;10.90;99.90;;;;;;5051890;28;20061;-76
2022/06/20 04:07:13;;;;;;;7.22;2.88;;;11.50;99.90;;;;;;5052029;28;20049;-75
2022/06/20 04:12:47;;;;;;;7.57;2.88;;;11.10;99.90;;;;;;5037923;28;20492;-76
2022/06/20 04:15:20;;;;;;;9.90;2.75;;;11.20;99.90;;;;;;5050242;28;20043;-73
2022/06/20 04:20:57;;;;;;;7.68;3.22;;;11.40;99.90;;;;;;5055466;28;20053;-76
2022/06/20 04:23:36;;;;;;;7.45;2.90;;;11.50;99.90;;;;;;5050974;28;20041;-76
2022/06/20 04:26:18;;;;;;;7.07;2.60;;;11.60;99.90;;;;;;5051790;28;20503;-76
2022/06/20 04:28:55;;;;;;;8.23;3.15;;;12.60;99.90;;;;;;5052231;28;20478;-76
2022/06/20 04:32:08;;;;;;;8.63;3.30;;;11.80;99.90;;;;;;5041243;28;20029;-72
2022/06/20 04:34:49;;;;;;;9.65;4.15;;;12.00;99.90;;;;;;5046488;28;20049;-76
2022/06/20 04:37:33;;;;;;;11.63;3.70;;;12.10;99.90;;;;;;5040876;28;20052;-70
2022/06/20 04:40:19;;;;;;;9.52;3.40;;;12.20;99.90;;;;;;5051374;28;20052;-73
2022/06/20 04:43:10;;;;;;;6.63;3.15;;;12.30;99.90;;;;;;5041504;28;20481;-70
2022/06/20 04:45:46;;;;;;;8.32;3.40;;;12.30;99.90;;;;;;5048236;28;20562;-74
2022/06/20 04:48:17;;;;;;;8.23;3.10;;;12.40;99.90;;;;;;5041522;28;20488;-74
2022/06/20 04:50:47;;;;;;;12.18;4.05;;;12.40;99.90;;;;;;5041645;28;20439;-72
2022/06/20 04:53:18;;;;;;;8.48;3.45;;;12.50;99.90;;;;;;5041629;28;20041;-74
2022/06/20 04:55:52;;;;;;;9.48;3.17;;;12.80;99.90;;;;;;5039031;28;20475;-72
2022/06/20 04:58:22;;;;;;;8.23;3.05;;;13.70;99.90;;;;;;5050087;28;20041;-75
2022/06/20 05:00:52;;;;;;;7.88;2.65;;;12.90;99.90;;;;;;5049971;28;20447;-74
2022/06/20 05:03:21;;;;;;;11.70;3.13;;;12.70;99.90;;;;;;5050644;28;20064;-73
2022/06/20 05:05:53;;;;;;;10.98;2.90;;;12.80;99.90;;;;;;5040542;28;20083;-70
2022/06/20 05:08:27;;;;;;;7.20;2.72;;;12.80;99.90;;;;;;5039422;28;20057;-74
2022/06/20 05:11:17;;;;;;;6.80;3.00;;;12.90;99.90;;;;;;5051737;28;20041;-81
2022/06/20 05:13:57;;;;;;;8.77;2.88;;;12.90;99.90;;;;;;5050086;28;20040;-78
2022/06/20 05:16:27;;;;;;;9.38;3.15;;;12.90;99.90;;;;;;5047379;28;20092;-77
2022/06/20 05:18:59;;;;;;;9.40;3.10;;;13.00;99.90;;;;;;5019336;28;20038;-76
2022/06/20 05:21:40;;;;;;;6.22;2.75;;;13.00;99.90;;;;;;5019804;28;20042;-76
2022/06/20 05:24:12;;;;;;;8.75;2.97;;;13.10;99.90;;;;;;5008739;28;20038;-82
2022/06/20 05:26:41;;;;;;;6.32;2.50;;;13.20;99.90;;;;;;5001911;28;20037;-80
2022/06/20 05:29:14;;;;;;;9.07;3.20;;;13.20;99.90;;;;;;5003063;28;20068;-74
2022/06/20 05:31:52;;;;;;;6.93;2.75;;;13.30;99.90;;;;;;5021725;28;20048;-75
2022/06/20 05:34:50;;;;;;;9.90;3.10;;;13.90;99.90;;;;;;5001439;28;20052;-75
2022/06/20 05:37:42;;;;;;;7.53;2.65;;;13.40;99.90;;;;;;5022262;28;20045;-73
2022/06/20 05:40:10;;;;;;;10.75;3.22;;;13.50;99.90;;;;;;5005976;28;20049;-75
2022/06/20 05:42:37;;;;;;;5.57;2.72;;;13.50;99.90;;;;;;5020675;28;20482;-75
2022/06/20 05:45:13;;;;;;;12.77;3.22;;;13.70;99.90;;;;;;5010728;28;20370;-75
2022/06/20 05:47:40;;;;;;;9.85;3.67;;;13.60;99.90;;;;;;5022561;28;20046;-78
2022/06/20 05:50:32;;;;;;;9.07;3.13;;;14.10;99.90;;;;;;5023678;28;20049;-76
2022/06/20 05:53:01;;;;;;;11.63;3.10;;;13.70;99.90;;;;;;5020387;28;20046;-75
2022/06/20 05:55:35;;;;;;;9.20;2.92;;;13.80;99.90;;;;;;5025396;28;20501;-75
2022/06/20 05:58:04;;;;;;;8.15;2.90;;;13.80;99.90;;;;;;5023565;28;20038;-75
2022/06/20 06:00:33;;;;;;;9.65;2.92;;;13.90;99.90;;;;;;5024657;28;20053;-75
2022/06/20 06:03:10;;;;;;;7.50;3.00;;;14.00;99.90;;;;;;5032395;28;20049;-75
2022/06/20 06:05:43;;;;;;;8.77;3.08;;;14.00;99.90;;;;;;5007067;28;20045;-75
2022/06/20 06:08:21;;;;;;;11.38;3.00;;;14.10;99.90;;;;;;5025666;28;20057;-76
2022/06/20 06:10:55;;;;;;;9.65;2.80;;;14.20;99.90;;;;;;5009125;28;20058;-75
2022/06/20 06:13:46;;;;;;;10.60;3.00;;;14.40;99.90;;;;;;5005207;28;20080;-75
2022/06/20 06:16:46;;;;;;;7.78;2.63;;;14.60;99.90;;;;;;5024192;28;20153;-75
2022/06/20 06:19:28;;;;;;;7.68;2.67;;;14.70;99.90;;;;;;5029213;28;20531;-76
2022/06/20 06:21:57;;;;;;;7.55;2.95;;;14.90;99.90;;;;;;5033040;28;20085;-76
2022/06/20 06:24:25;;;;;;;5.63;2.20;;;15.00;99.90;;;;;;5016190;28;20080;-75
2022/06/20 06:26:56;;;;;;;8.98;2.67;;;15.00;99.90;;;;;;5034167;28;20477;-75
2022/06/20 06:29:54;;;;;;;11.88;2.80;;;15.10;99.90;;;;;;5015555;28;20048;-75
2022/06/20 06:32:30;;;;;;;7.13;2.45;;;15.10;99.90;;;;;;5014366;28;20185;-75
2022/06/20 06:35:15;;;;;;;8.65;2.83;;;15.10;99.90;;;;;;5034633;28;20088;-75
2022/06/20 06:38:00;;;;;;;9.40;2.63;;;15.10;99.90;;;;;;5032332;28;20038;-75
2022/06/20 06:40:48;;;;;;;7.65;2.63;;;15.00;99.90;;;;;;5034489;28;20041;-75
2022/06/20 06:43:17;;;;;;;7.18;2.40;;;15.10;99.90;;;;;;5015591;28;20045;-75
2022/06/20 06:45:45;;;;;;;6.32;1.77;;;15.00;99.90;;;;;;5017214;28;20041;-76
2022/06/20 06:48:15;;;;;;;4.90;2.05;;;15.00;99.90;;;;;;5023726;28;20041;-76
2022/06/20 06:50:53;;;;;;;4.28;1.70;;;15.00;99.90;;;;;;5012066;28;20042;-75
2022/06/20 06:53:38;;;;;;;8.45;1.98;;;15.00;99.90;;;;;;5015105;28;20057;-76
2022/06/20 06:56:12;;;;;;;6.55;1.77;;;15.00;99.90;;;;;;5016329;28;20044;-76
2022/06/20 06:59:04;;;;;;;7.38;2.13;;;15.10;99.90;;;;;;5016424;28;20095;-76
2022/06/20 07:01:36;;;;;;;6.05;2.00;;;15.10;99.90;;;;;;5025334;28;20520;-75
2022/06/20 07:04:16;;;;;;;10.80;1.95;;;15.80;99.90;;;;;;5014607;28;20046;-75
2022/06/20 07:06:54;;;;;;;5.07;1.90;;;15.40;99.90;;;;;;5016738;28;20042;-75
2022/06/20 07:09:27;;;;;;;6.10;2.17;;;15.50;99.90;;;;;;5013873;28;20056;-75
2022/06/20 07:12:11;;;;;;;6.22;2.28;;;15.60;99.90;;;;;;5015065;28;20045;-75
2022/06/20 07:14:47;;;;;;;6.10;2.22;;;15.80;99.90;;;;;;5030068;28;20051;-76
2022/06/20 07:17:24;;;;;;;7.40;1.98;;;15.90;99.90;;;;;;5016984;28;20128;-74
2022/06/20 07:19:51;;;;;;;6.63;1.75;;;16.00;99.90;;;;;;5032623;28;20098;-75
2022/06/20 07:22:20;;;;;;;6.72;2.00;;;16.40;99.90;;;;;;5033147;28;20033;-75
2022/06/20 07:24:47;;;;;;;4.32;2.00;;;17.10;99.90;;;;;;5031900;28;20079;-75
2022/06/20 07:27:22;;;;;;;4.45;1.70;;;17.90;99.90;;;;;;5030858;28;20087;-74
2022/06/20 07:29:54;;;;;;;3.78;1.83;;;18.40;99.90;;;;;;5031592;28;20045;-75
2022/06/20 07:32:36;;;;;;;4.35;1.80;;;18.80;99.90;;;;;;5030367;28;20413;-75
2022/06/20 07:35:11;;;;;;;5.18;1.95;;;19.40;99.50;;;;;;5027343;28;20053;-74
2022/06/20 07:37:47;;;;;;;4.47;1.55;;;19.60;99.60;;;;;;5028485;28;20042;-75
2022/06/20 07:40:25;;;;;;;8.25;1.90;;;20.30;99.40;;;;;;5030237;28;20447;-75
2022/06/20 07:43:00;;;;;;;6.60;1.80;;;20.90;98.30;;;;;;5033212;28;20057;-74
2022/06/20 07:45:38;;;;;;;3.50;1.38;;;21.00;97.90;;;;;;5031557;28;20038;-74
2022/06/20 07:48:08;;;;;;;5.15;1.83;;;21.50;97.60;;;;;;5028559;28;20073;-74
2022/06/20 07:50:42;;;;;;;3.90;1.70;;;22.80;96.70;;;;;;5032542;28;20401;-74
2022/06/20 07:53:16;;;;;;;8.02;1.80;;;21.40;95.60;;;;;;5031227;28;20049;-74
2022/06/20 07:55:50;;;;;;;5.70;1.92;;;21.70;96.90;;;;;;5031201;28;20068;-74
2022/06/20 07:58:26;;;;;;;6.60;1.70;;;22.00;95.40;;;;;;5030057;28;20088;-74
2022/06/20 08:00:53;;;;;;;6.05;2.05;;;22.40;95.40;;;;;;5030796;28;20085;-74
2022/06/20 08:03:34;;;;;;;5.22;1.60;;;22.80;95.90;;;;;;5031144;28;20120;-75
2022/06/20 08:06:18;;;;;;;3.85;1.80;;;22.70;95.00;;;;;;5027167;28;20497;-74
2022/06/20 08:09:01;;;;;;;6.65;1.83;;;22.10;94.30;;;;;;5031236;28;20046;-74
2022/06/20 08:11:41;;;;;;;5.55;1.58;;;21.90;95.20;;;;;;5027785;28;20045;-74
2022/06/20 08:14:30;;;;;;;5.13;1.92;;;21.90;95.00;;;;;;5028472;28;20099;-74
2022/06/20 08:17:03;;;;;;;5.90;1.98;;;21.60;95.30;;;;;;5027015;28;20061;-75
2022/06/20 08:19:30;;;;;;;3.97;1.75;;;21.40;95.40;;;;;;5031792;28;20555;-73
2022/06/20 08:22:26;;;;;;;7.80;1.90;;;21.50;95.80;;;;;;5031314;28;20504;-74
2022/06/20 08:25:14;;;;;;;5.25;1.60;;;21.60;95.20;;;;;;5030807;28;20131;-74
2022/06/20 08:27:49;;;;;;;6.70;1.60;;;22.20;94.10;;;;;;5031849;28;20053;-74
2022/06/20 08:30:28;;;;;;;2.75;1.30;;;22.80;94.60;;;;;;5029727;28;20446;-75
2022/06/20 08:33:05;;;;;;;4.30;1.40;;;22.90;94.20;;;;;;5028574;28;20386;-76
2022/06/20 08:35:43;;;;;;;4.72;1.40;;;23.10;94.30;;;;;;5029708;28;20119;-73
2022/06/20 08:38:26;;;;;;;6.28;1.67;;;23.50;93.50;;;;;;5030495;28;20501;-75
2022/06/20 08:40:57;;;;;;;7.35;1.42;;;23.80;93.20;;;;;;5026521;28;20053;-75
2022/06/20 08:43:56;;;;;;;4.85;1.77;;;24.20;93.30;;;;;;5029675;28;20099;-75
2022/06/20 08:46:43;;;;;;;4.97;1.70;;;24.50;92.30;;;;;;5027762;28;20408;-75
2022/06/20 08:49:30;;;;;;;7.10;1.58;;;24.70;91.40;;;;;;5028337;28;20107;-74
2022/06/20 08:52:28;;;;;;;7.90;1.70;;;25.00;91.10;;;;;;5030189;28;20456;-75
2022/06/20 08:55:21;;;;;;;3.45;1.27;;;24.70;90.90;;;;;;5030567;28;20412;-74
2022/06/20 08:58:28;;;;;;;4.60;1.80;;;24.60;91.30;;;;;;5029498;28;20150;-75
2022/06/20 09:01:40;;;;;;;5.03;1.80;;;24.80;91.90;;;;;;5026947;28;20041;-74
2022/06/20 09:04:28;;;;;;;5.47;1.80;;;24.50;90.90;;;;;;5030447;28;20116;-74
2022/06/20 09:07:10;;;;;;;4.70;1.60;;;24.40;92.10;;;;;;5031568;28;20045;-74
2022/06/20 09:09:45;;;;;;;4.80;1.90;;;24.70;92.50;;;;;;5030154;28;20041;-74
2022/06/20 09:12:34;;;;;;;4.55;1.80;;;25.00;92.40;;;;;;5028954;28;20053;-74
2022/06/20 09:15:24;;;;;;;4.80;1.90;;;24.70;91.60;;;;;;5031230;28;20072;-74
2022/06/20 09:17:57;;;;;;;6.10;2.20;;;23.80;91.80;;;;;;5036584;28;20059;-74
2022/06/20 09:20:42;;;;;;;4.68;1.77;;;22.80;92.10;;;;;;5039265;28;20072;-74
2022/06/20 09:23:16;;;;;;;4.30;2.00;;;22.00;93.70;;;;;;5061992;28;20048;-74
2022/06/20 09:26:16;;;;;;;6.45;1.95;;;21.70;93.90;;;;;;5040829;28;20041;-74
2022/06/20 09:29:01;;;;;;;6.50;1.80;;;21.80;94.70;;;;;;5044736;28;20395;-74
2022/06/20 09:31:43;;;;;;;5.47;1.70;;;22.30;94.60;;;;;;5042348;28;20048;-73
2022/06/20 09:34:39;;;;;;;5.13;2.05;;;22.40;93.10;;;;;;5058948;28;20513;-73
2022/06/20 09:37:23;;;;;;;4.90;1.98;;;22.90;93.90;;;;;;5059094;28;20059;-74
2022/06/20 09:40:14;;;;;;;5.22;1.80;;;23.30;93.40;;;;;;5058986;28;20132;-74
2022/06/20 09:42:50;;;;;;;3.88;1.42;;;23.70;92.70;;;;;;5041266;28;20045;-73
2022/06/20 09:45:23;;;;;;;5.05;2.08;;;23.40;92.40;;;;;;5041043;28;20034;-74
2022/06/20 09:48:20;;;;;;;5.20;1.73;;;23.80;93.20;;;;;;5061560;28;20052;-74
2022/06/20 09:51:13;;;;;;;5.10;1.80;;;23.50;92.80;;;;;;5040725;28;20119;-73
2022/06/20 09:53:51;;;;;;;4.35;1.80;;;22.80;92.60;;;;;;5044201;28;20037;-74
2022/06/20 09:56:35;;;;;;;4.28;2.05;;;22.70;93.90;;;;;;5041579;28;20063;-73
2022/06/20 09:59:13;;;;;;;5.90;1.98;;;22.80;94.00;;;;;;5041716;28;20040;-74
2022/06/20 10:02:00;;;;;;;5.93;1.92;;;23.60;93.10;;;;;;5033327;28;20081;-74
2022/06/20 10:05:10;;;;;;;4.85;1.83;;;24.10;92.50;;;;;;5038874;28;20381;-75
2022/06/20 10:07:58;;;;;;;4.72;1.73;;;24.40;92.00;;;;;;5061499;28;20037;-74
2022/06/20 10:10:41;;;;;;;5.28;1.90;;;24.00;91.40;;;;;;5060112;28;20037;-73
2022/06/20 10:13:22;;;;;;;9.27;1.73;;;23.40;92.70;;;;;;5031617;28;20069;-74
2022/06/20 10:15:59;;;;;;;3.55;1.60;;;23.10;92.80;;;;;;5041197;28;20044;-75
2022/06/20 10:19:00;;;;;;;4.13;1.92;;;23.10;93.50;;;;;;5042214;28;20090;-75
2022/06/20 10:21:43;;;;;;;3.75;1.73;;;23.40;92.10;;;;;;5005876;28;20484;-75
2022/06/20 10:24:12;;;;;;;4.10;1.55;;;23.80;92.10;;;;;;5040590;28;20124;-74
2022/06/20 10:26:55;;;;;;;5.50;1.70;;;24.10;92.70;;;;;;5040764;28;20433;-75
2022/06/20 10:29:33;;;;;;;3.42;1.60;;;23.60;92.00;;;;;;5059338;28;20048;-74
2022/06/20 10:32:16;;;;;;;4.45;1.50;;;23.90;91.10;;;;;;5062449;28;20083;-73
2022/06/20 10:35:08;;;;;;;8.20;1.75;;;24.00;91.70;;;;;;5060435;28;20048;-74
2022/06/20 10:37:52;;;;;;;3.47;1.70;;;24.20;91.40;;;;;;5034946;28;20055;-74
2022/06/20 10:40:33;;;;;;;4.97;1.42;;;24.50;90.80;;;;;;5042075;28;20090;-73
2022/06/20 10:43:28;;;;;;;4.53;1.65;;;24.10;90.30;;;;;;5062182;28;20088;-75
2022/06/20 10:46:08;;;;;;;5.18;1.70;;;24.20;91.30;;;;;;5046648;28;20052;-74
2022/06/20 10:48:52;;;;;;;3.28;1.45;;;23.70;91.40;;;;;;5044928;28;20072;-73
2022/06/20 10:51:20;;;;;;;6.15;1.88;;;22.80;92.30;;;;;;5045440;28;20484;-73
2022/06/20 10:54:23;;;;;;;5.13;1.85;;;22.50;92.50;;;;;;5064530;28;20130;-73
2022/06/20 10:57:13;;;;;;;5.55;1.85;;;21.90;93.70;;;;;;5045949;28;20124;-73
2022/06/20 11:00:02;;;;;;;3.58;1.58;;;21.30;93.80;;;;;;5045120;28;20048;-73
2022/06/20 11:02:36;;;;;;;3.67;1.50;;;21.50;94.60;;;;;;5057527;28;20033;-73
2022/06/20 11:05:07;;;;;;;3.97;1.65;;;21.30;93.90;;;;;;5043265;28;20075;-73
2022/06/20 11:07:40;;;;;;;4.25;1.55;;;21.10;93.00;;;;;;5064476;28;20080;-73
2022/06/20 11:10:31;;;;;;;4.82;1.73;;;21.40;93.70;;;;;;5058120;28;20496;-72
2022/06/20 11:13:06;;;;;;;6.57;1.75;;;21.70;93.90;;;;;;5037032;28;20049;-74
2022/06/20 11:15:42;;;;;;;4.28;1.60;;;21.70;93.60;;;;;;5044336;28;20048;-74
2022/06/20 11:18:23;;;;;;;3.35;1.50;;;21.90;93.70;;;;;;5044375;28;20056;-73
2022/06/20 11:21:16;;;;;;;3.47;1.63;;;22.00;93.40;;;;;;5046609;28;20044;-74
2022/06/20 11:23:48;;;;;;;3.97;1.58;;;21.50;93.50;;;;;;5043244;28;20049;-73
2022/06/20 11:26:37;;;;;;;3.42;1.70;;;21.20;94.20;;;;;;5062439;28;20053;-73
2022/06/20 11:29:24;;;;;;;5.97;1.73;;;21.50;94.60;;;;;;5062123;28;20037;-74
2022/06/20 11:32:17;;;;;;;3.95;2.00;;;22.10;94.00;;;;;;5042834;28;20055;-73
2022/06/20 11:35:01;;;;;;;4.00;1.77;;;22.40;93.70;;;;;;5064074;28;20037;-74
2022/06/20 11:37:56;;;;;;;4.82;1.50;;;23.00;93.60;;;;;;5040058;28;20045;-74
2022/06/20 11:40:40;;;;;;;4.05;1.63;;;23.00;92.80;;;;;;5009773;28;20183;-75
2022/06/20 11:43:33;;;;;;;3.83;1.73;;;23.40;90.50;;;;;;5044360;28;20481;-75
2022/06/20 11:46:15;;;;;;;4.32;2.15;;;23.70;92.60;;;;;;5057096;28;20073;-75
2022/06/20 11:49:21;;;;;;;4.25;2.20;;;23.30;92.50;;;;;;5043881;28;20096;-75
2022/06/20 11:52:17;;;;;;;4.32;1.60;;;23.80;92.10;;;;;;5064394;28;20537;-74
2022/06/20 11:55:25;;;;;;;4.53;1.80;;;23.20;91.80;;;;;;5043027;28;20053;-74
2022/06/20 11:57:56;;;;;;;4.72;1.60;;;22.50;92.50;;;;;;4974448;28;20099;-75
2022/06/20 12:00:31;;;;;;;4.75;2.13;;;22.50;93.20;;;;;;5029001;28;20080;-74
2022/06/20 12:03:21;;;;;;;7.18;3.00;;;22.60;93.20;;;;;;5045723;28;20127;-73
2022/06/20 12:06:17;;;;;;;6.95;2.58;;;22.30;92.90;;;;;;5060662;28;20048;-74
2022/06/20 12:09:20;;;;;;;4.75;1.77;;;22.20;92.80;;;;;;5063417;28;20086;-73
2022/06/20 12:12:04;;;;;;;5.30;1.63;;;22.20;93.80;;;;;;5038805;28;20099;-73
2022/06/20 12:14:52;;;;;;;4.72;2.03;;;22.60;93.80;;;;;;5059286;28;20102;-73
2022/06/20 12:17:23;;;;;;;4.40;2.10;;;22.40;93.10;;;;;;5034199;28;20476;-73
2022/06/20 12:25:44;;;;;;;4.03;1.85;;;20.70;94.70;;;;;;5047156;28;20053;-73
2022/06/20 12:28:44;;;;;;;3.55;1.60;;;20.60;94.90;;;;;;5029538;28;20080;-74
2022/06/20 12:31:15;;;;;;;5.10;2.22;;;20.70;94.90;;;;;;5019736;28;20056;-74
2022/06/20 12:34:22;;;;;;;4.85;1.92;;;21.10;95.00;;;;;;5030860;28;20049;-75
2022/06/20 12:37:12;;;;;;;3.42;1.80;;;21.40;94.50;;;;;;5014697;28;20517;-75
2022/06/20 12:39:43;;;;;;;4.47;1.63;;;21.60;95.10;;;;;;5031435;28;20094;-69
2022/06/20 12:42:17;;;;;;;5.68;1.67;;;21.70;94.10;;;;;;5030652;28;20041;-73
2022/06/20 12:45:18;;;;;;;5.60;1.70;;;21.50;94.60;;;;;;5027429;28;20396;-75
2022/06/20 12:47:53;;;;;;;3.90;1.85;;;21.60;94.10;;;;;;5028151;28;20045;-75
2022/06/20 12:50:23;;;;;;;3.30;1.70;;;21.60;94.60;;;;;;5030863;28;20037;-77
2022/06/20 12:53:04;;;;;;;6.20;1.90;;;21.60;93.70;;;;;;5030272;28;20037;-75
2022/06/20 12:55:38;;;;;;;5.25;1.77;;;21.60;94.60;;;;;;5026399;28;20308;-76
2022/06/20 12:58:25;;;;;;;5.22;1.80;;;21.70;94.70;;;;;;5029873;28;20187;-76
2022/06/20 13:01:01;;;;;;;4.38;1.70;;;21.70;93.50;;;;;;5025589;28;20038;-76
2022/06/20 13:03:50;;;;;;;;;;;22.00;93.80;;;;;;5030671;28;20048;-76
2022/06/20 13:06:36;;;;;;;3.50;1.38;;;22.20;93.40;;;;;;5027789;28;19924;-76
2022/06/20 13:09:34;;;;;;;4.03;1.63;;;22.20;92.50;;;;;;5030318;28;20481;-76
2022/06/20 13:12:31;;;;;;;3.80;1.70;;;22.20;93.20;;;;;;5029965;28;20061;-76
2022/06/20 13:15:13;;;;;;;4.28;1.60;;;22.40;93.10;;;;;;5029816;28;20059;-77
2022/06/20 13:17:58;;;;;;;4.68;1.70;;;22.50;92.50;;;;;;5034916;28;20049;-76
2022/06/20 13:20:50;;;;;;;4.18;1.75;;;22.50;93.30;;;;;;5060086;28;20549;-76
2022/06/20 13:23:44;;;;;;;4.07;2.00;;;22.30;94.00;;;;;;5024679;28;20053;-77
2022/06/20 13:26:47;;;;;;;6.47;1.83;;;22.10;94.10;;;;;;5026898;28;20049;-78
2022/06/20 13:30:00;;;;;;;4.55;2.00;;;21.80;94.00;;;;;;5046636;28;20045;-78
2022/06/20 13:32:32;;;;;;;5.28;1.75;;;21.50;94.70;;;;;;5006747;28;20052;-76
2022/06/20 13:35:34;;;;;;;7.53;2.35;;;21.40;94.80;;;;;;5058326;28;20044;-76
2022/06/20 13:38:13;;;;;;;4.90;1.80;;;21.40;95.80;;;;;;5057436;28;20949;-76
2022/06/20 13:41:00;;;;;;;5.03;1.90;;;21.20;94.40;;;;;;5041762;28;20051;-73
2022/06/20 13:43:46;;;;;;;3.92;1.67;;;21.10;94.80;;;;;;5054814;28;20036;-77
2022/06/20 13:46:50;;;;;;;8.88;1.70;;;21.10;94.60;;;;;;5037632;28;20044;-72
2022/06/20 13:49:36;;;;;;;5.43;1.50;;;21.40;94.90;;;;;;5042334;28;20057;-72
2022/06/20 13:52:24;;;;;;;3.85;1.40;;;21.70;94.50;;;;;;5035467;28;20147;-73
2022/06/20 13:55:05;;;;;;;5.05;1.60;;;21.70;94.60;;;;;;5044193;28;20151;-72
2022/06/20 13:57:56;;;;;;;4.10;1.40;;;21.70;93.70;;;;;;5033860;28;20048;-73
2022/06/20 14:00:29;;;;;;;6.53;1.60;;;21.80;93.70;;;;;;5041103;28;20061;-76
2022/06/20 14:03:19;;;;;;;5.15;1.70;;;21.60;93.70;;;;;;5058841;28;20037;-72
2022/06/20 14:05:46;;;;;;;3.25;1.50;;;21.40;94.30;;;;;;5053431;28;20090;-75